首页
METAR-TAF:

METAR-TAF

机场 :

Churchill Falls, 紐芬蘭-拉布拉多, 加拿大

纬度: 53-33N, 经度: 064-06W, 海拔: 440米

当前天气观测

该预报发布于1小时和24分钟前的10:00 UTC
风速7节,风向
温度 11°C
湿度 82%
气压 1015 hPa
能見度: 14.5公里
多云层高于3600英尺
多云层高于6600英尺
阴天层高于8300英尺

METAR: CZUM 191000Z AUTO 10007KT 9SM BKN036 BKN066 OVC083 11/08 A2997 RMK SLP158

时间: 08:24 (11:24 UTC)

预报

该预报发布于3小时和44分钟前的07:40 UTC
预报有效从19日的 08点(UTC)到 19日的 20点(UTC)
风速7节,风向
能見度: 10公里
少量云层高于6000英尺
阴天层高于12000英尺
从 19日的 1500点(UTC)
风速5节,风向西南
能見度: 10公里
多云层高于5000英尺
阴天层高于12000英尺
短暂存在
从 19日的 15点(UTC)到 19日的 18点(UTC)
能見度: 10公里
小阵雨
从 19日的 1800点(UTC)
风速10节,风向西
能見度: 10公里
多云层高于6000英尺
短暂存在
从 19日的 18点(UTC)到 19日的 20点(UTC)
能見度: 10公里
小阵雨
几率 30%
从 19日的 18点(UTC)到 19日的 20点(UTC)
能見度: 6.4公里
多云层高于5000英尺, 积雨云.
雷暴, 雨, 轻雾

TAF: CZUM 190740Z 1908/1920 10007KT P6SM FEW060 OVC120 FM191500 22005KT P6SM BKN050 OVC120 TEMPO 1915/1918 P6SM -SHRA FM191800 27010KT P6SM BKN060 TEMPO 1918/1920 P6SM -SHRA PROB30 1918/1920 4SM TSRA BR BKN050CB RMK FCST BASED ON AUTO OBS. NXT FCST BY 191400Z

超过4000个机场的气象观测和天气预报(METAR&TAF报告)。

可查询的气象台以黄色和红色小点在地图上表示。

将鼠标移到小点上方,可查看气象台名称。

然后点击查看天气观测和预报。

如需切换地图:点击带黑十字的绿色按钮放大地图;点击带横线的绿色按钮缩小地图;或者点击绿色箭头查看邻近地区的地图。


METAR-TAF: